createdAt,value
2022-09-28T00:00:47.567Z,8.30
2022-09-28T00:03:15.188Z,8.28
2022-09-28T00:05:42.763Z,8.29
2022-09-28T00:08:10.336Z,8.29
2022-09-28T00:10:38.119Z,8.34
2022-09-28T00:13:07.739Z,8.32
2022-09-28T00:15:35.472Z,8.29
2022-09-28T00:18:04.487Z,8.28
2022-09-28T00:20:32.059Z,8.31
2022-09-28T00:23:00.667Z,8.31
2022-09-28T00:25:28.321Z,8.32
2022-09-28T00:27:57.267Z,8.34
2022-09-28T00:30:24.886Z,8.34
2022-09-28T00:32:52.778Z,8.31
2022-09-28T00:35:21.785Z,8.29
2022-09-28T00:37:50.882Z,8.28
2022-09-28T00:40:18.628Z,8.29
2022-09-28T00:42:46.222Z,8.30
2022-09-28T00:45:13.852Z,8.32
2022-09-28T00:47:44.929Z,8.32
2022-09-28T00:50:18.201Z,8.32
2022-09-28T00:52:50.268Z,8.32
2022-09-28T00:55:21.227Z,8.32
2022-09-28T00:57:53.246Z,8.32
2022-09-28T01:00:21.927Z,8.35
2022-09-28T01:02:49.557Z,8.29
2022-09-28T01:05:18.141Z,8.33
2022-09-28T01:07:47.646Z,8.34
2022-09-28T01:10:15.473Z,8.28
2022-09-28T01:12:43.021Z,8.26
2022-09-28T01:15:10.992Z,8.25
2022-09-28T01:17:49.191Z,8.30
2022-09-28T01:20:29.013Z,8.31
2022-09-28T01:23:31.552Z,8.34
2022-09-28T01:26:25.196Z,8.37
2022-09-28T01:28:58.139Z,8.37
2022-09-28T01:31:28.340Z,8.39
2022-09-28T01:33:58.691Z,8.41
2022-09-28T01:36:29.335Z,8.41
2022-09-28T01:38:59.219Z,8.39
2022-09-28T01:41:28.105Z,8.41
2022-09-28T01:43:59.505Z,8.35
2022-09-28T01:46:30.177Z,8.38
2022-09-28T01:48:59.003Z,8.37
2022-09-28T01:51:31.066Z,8.36
2022-09-28T01:54:02.931Z,8.36
2022-09-28T01:56:35.166Z,8.36
2022-09-28T01:59:04.724Z,8.34
2022-09-28T02:01:37.191Z,8.32
2022-09-28T02:04:09.464Z,8.33
2022-09-28T02:06:38.806Z,8.30
2022-09-28T02:09:11.737Z,8.30
2022-09-28T02:11:40.481Z,8.25
2022-09-28T02:14:10.986Z,8.24
2022-09-28T02:16:41.226Z,8.17
2022-09-28T02:19:11.554Z,8.13
2022-09-28T02:21:43.029Z,8.19
2022-09-28T02:24:19.333Z,8.15
2022-09-28T02:26:50.638Z,8.12
2022-09-28T02:29:19.659Z,8.13
2022-09-28T02:31:47.334Z,8.15
2022-09-28T02:34:14.974Z,8.13
2022-09-28T02:36:44.869Z,8.14
2022-09-28T02:39:15.143Z,8.14
2022-09-28T02:41:53.756Z,8.13
2022-09-28T02:44:51.780Z,8.10
2022-09-28T02:47:28.181Z,8.08
2022-09-28T02:50:00.472Z,8.05
2022-09-28T02:52:47.505Z,8.05
2022-09-28T02:55:21.289Z,8.08
2022-09-28T02:58:01.875Z,8.07
2022-09-28T03:00:34.815Z,8.06
2022-09-28T03:03:10.215Z,8.07
2022-09-28T03:05:42.673Z,8.08
2022-09-28T03:08:16.333Z,8.07
2022-09-28T03:10:45.861Z,8.10
2022-09-28T03:13:14.457Z,8.09
2022-09-28T03:15:48.608Z,8.06
2022-09-28T03:18:17.503Z,8.06
2022-09-28T03:20:45.116Z,8.05
2022-09-28T03:23:24.216Z,8.04
2022-09-28T03:25:52.650Z,8.04
2022-09-28T03:28:21.266Z,8.06
2022-09-28T03:30:50.188Z,8.07
2022-09-28T03:33:18.385Z,8.11
2022-09-28T03:35:47.664Z,8.06
2022-09-28T03:38:15.329Z,8.06
2022-09-28T03:40:42.954Z,8.07
2022-09-28T03:43:10.598Z,8.08
2022-09-28T03:45:38.222Z,8.11
2022-09-28T03:48:07.181Z,8.09
2022-09-28T03:50:34.739Z,8.09
2022-09-28T03:53:05.220Z,8.06
2022-09-28T03:55:32.809Z,8.09
2022-09-28T03:58:00.396Z,8.11
2022-09-28T04:00:27.995Z,8.12
2022-09-28T04:02:55.559Z,8.14
2022-09-28T04:05:24.619Z,8.14
2022-09-28T04:07:53.863Z,8.15
2022-09-28T04:10:21.484Z,8.18
2022-09-28T04:12:49.773Z,8.16
2022-09-28T04:15:17.373Z,8.20
2022-09-28T04:17:44.968Z,8.19
2022-09-28T04:20:12.570Z,8.20
2022-09-28T04:22:41.507Z,8.20
2022-09-28T04:25:09.933Z,8.21
2022-09-28T04:27:55.095Z,8.14
2022-09-28T04:30:23.170Z,8.15
2022-09-28T04:32:50.810Z,8.20
2022-09-28T04:35:18.593Z,8.23
2022-09-28T04:37:47.574Z,8.19
2022-09-28T04:40:15.389Z,8.16
2022-09-28T04:42:43.075Z,8.21
2022-09-28T04:45:11.619Z,8.23
2022-09-28T04:47:39.270Z,8.20
2022-09-28T04:50:07.947Z,8.20
2022-09-28T04:52:37.490Z,8.21
2022-09-28T04:55:07.494Z,8.26
2022-09-28T04:57:35.494Z,8.23
2022-09-28T05:00:03.285Z,8.24
2022-09-28T05:02:30.996Z,8.24
2022-09-28T05:04:58.942Z,8.24
2022-09-28T05:07:26.895Z,8.18
2022-09-28T05:09:55.252Z,8.12
2022-09-28T05:12:24.281Z,8.13
2022-09-28T05:14:51.886Z,8.16
2022-09-28T05:17:19.472Z,8.17
2022-09-28T05:19:47.121Z,8.15
2022-09-28T05:22:15.836Z,8.14
2022-09-28T05:24:43.647Z,8.13
2022-09-28T05:27:11.316Z,8.13
2022-09-28T05:29:40.333Z,8.13
2022-09-28T05:32:08.038Z,8.10
2022-09-28T05:34:35.742Z,8.11
2022-09-28T05:37:03.539Z,8.10
2022-09-28T05:39:31.310Z,8.14
2022-09-28T05:41:59.060Z,8.18
2022-09-28T05:44:26.942Z,8.18
2022-09-28T05:46:56.004Z,8.20
2022-09-28T05:49:23.871Z,8.20
2022-09-28T05:51:51.713Z,8.21
2022-09-28T05:54:19.625Z,8.18
2022-09-28T05:56:47.750Z,8.11
2022-09-28T05:59:24.664Z,8.10
2022-09-28T06:02:17.873Z,8.15
2022-09-28T06:04:53.636Z,8.18
2022-09-28T06:07:22.051Z,8.19
2022-09-28T06:09:49.898Z,8.14
2022-09-28T06:12:17.559Z,8.12
2022-09-28T06:14:45.280Z,8.05
2022-09-28T06:17:14.702Z,8.07
2022-09-28T06:19:42.530Z,8.01
2022-09-28T06:22:11.745Z,8.07
2022-09-28T06:24:39.704Z,8.09
2022-09-28T06:27:07.572Z,8.07
2022-09-28T06:29:35.367Z,8.08
2022-09-28T06:32:03.568Z,8.05
2022-09-28T06:34:31.465Z,8.09
2022-09-28T06:37:01.968Z,8.13
2022-09-28T06:39:31.266Z,8.16
2022-09-28T06:42:04.543Z,8.16
2022-09-28T06:44:35.925Z,8.19
2022-09-28T06:47:06.854Z,8.26
2022-09-28T06:49:34.632Z,8.28
2022-09-28T06:52:02.872Z,8.32
2022-09-28T06:54:32.260Z,8.31
2022-09-28T06:57:02.982Z,8.34
2022-09-28T06:59:31.477Z,8.39
2022-09-28T07:02:22.310Z,8.33
2022-09-28T07:04:50.386Z,8.35
2022-09-28T07:07:18.393Z,8.35
2022-09-28T07:09:51.245Z,8.36
2022-09-28T07:12:25.707Z,8.35
2022-09-28T07:14:57.411Z,8.39
2022-09-28T07:17:25.558Z,8.43
2022-09-28T07:20:02.304Z,8.46
2022-09-28T07:22:43.875Z,8.46
2022-09-28T07:26:06.545Z,8.47
2022-09-28T07:28:51.006Z,8.45
2022-09-28T07:31:18.966Z,8.50
2022-09-28T07:33:56.534Z,8.51
2022-09-28T07:36:24.392Z,8.57
2022-09-28T07:41:59.665Z,8.55
2022-09-28T07:44:30.285Z,8.57
2022-09-28T07:47:05.732Z,8.60
2022-09-28T07:49:35.392Z,8.62
2022-09-28T07:52:19.449Z,8.61
2022-09-28T07:56:06.782Z,8.64
2022-09-28T07:58:50.319Z,8.68
2022-09-28T08:01:23.037Z,8.75
2022-09-28T08:04:48.189Z,8.81
2022-09-28T08:13:44.210Z,8.87
2022-09-28T08:16:26.298Z,8.90
2022-09-28T08:18:54.354Z,8.92
2022-09-28T08:21:57.527Z,8.90
2022-09-28T08:24:36.575Z,8.90
2022-09-28T08:30:47.412Z,8.97
2022-09-28T08:33:21.010Z,9.01
2022-09-28T08:35:49.108Z,9.01
2022-09-28T08:38:17.076Z,9.04
2022-09-28T08:40:51.534Z,9.06
2022-09-28T08:43:38.214Z,9.03
2022-09-28T08:49:26.187Z,9.11
2022-09-28T08:52:05.756Z,9.11
2022-09-28T08:55:10.122Z,9.09
2022-09-28T08:57:46.525Z,9.06
2022-09-28T09:03:31.698Z,9.15
2022-09-28T09:06:38.791Z,9.14
2022-09-28T09:09:31.613Z,9.12
2022-09-28T09:12:13.962Z,8.70
2022-09-28T09:15:11.909Z,8.51
2022-09-28T09:17:46.560Z,8.29
2022-09-28T09:20:36.970Z,8.18
2022-09-28T09:23:13.693Z,8.18
2022-09-28T09:25:59.619Z,8.18
2022-09-28T09:29:10.113Z,8.14
2022-09-28T09:31:57.655Z,8.09
2022-09-28T09:34:44.931Z,8.00
2022-09-28T09:37:36.642Z,8.01
2022-09-28T09:40:23.305Z,8.08
2022-09-28T09:43:02.815Z,8.10
2022-09-28T09:45:41.609Z,8.12
2022-09-28T09:48:45.513Z,8.09
2022-09-28T09:51:24.958Z,8.24
2022-09-28T09:54:00.205Z,8.26
2022-09-28T09:56:44.198Z,8.13
2022-09-28T09:59:15.477Z,8.22
2022-09-28T10:04:41.701Z,8.14
2022-09-28T10:07:17.462Z,8.18
2022-09-28T10:09:47.580Z,8.31
2022-09-28T10:12:25.056Z,8.27
2022-09-28T10:14:56.479Z,8.25
2022-09-28T10:17:27.476Z,8.15
2022-09-28T10:19:56.978Z,8.23
2022-09-28T10:22:28.156Z,8.26
2022-09-28T10:24:58.775Z,8.35
2022-09-28T10:27:56.056Z,8.51
2022-09-28T10:33:31.047Z,8.71
2022-09-28T10:36:00.453Z,8.76
2022-09-28T10:38:47.627Z,8.80
2022-09-28T10:42:02.651Z,8.88
2022-09-28T10:48:10.869Z,9.01
2022-09-28T10:59:03.969Z,9.48
2022-09-28T11:01:33.439Z,9.62
2022-09-28T11:04:04.424Z,9.72
2022-09-28T11:09:31.386Z,9.86
2022-09-28T11:12:22.700Z,9.90
2022-09-28T11:14:53.024Z,9.90
2022-09-28T11:21:15.629Z,9.99
2022-09-28T11:24:07.516Z,10.00
2022-09-28T11:32:59.408Z,10.13
2022-09-28T11:35:32.302Z,10.18
2022-09-28T11:39:21.034Z,10.25
2022-09-28T11:42:20.670Z,10.30
2022-09-28T11:48:25.370Z,10.31
2022-09-28T11:51:52.256Z,10.32
2022-09-28T11:57:07.754Z,10.41
2022-09-28T12:19:13.059Z,10.44
2022-09-28T12:21:28.330Z,10.72
2022-09-28T12:24:28.621Z,10.73
2022-09-28T12:27:44.384Z,10.71
2022-09-28T12:33:47.482Z,10.62
2022-09-28T12:36:47.391Z,10.57
2022-09-28T12:52:02.404Z,10.61
2022-09-28T13:01:47.675Z,10.38
2022-09-28T13:04:35.240Z,9.81
2022-09-28T13:07:08.966Z,9.78
2022-09-28T13:09:43.339Z,9.59
2022-09-28T13:12:21.009Z,9.38
2022-09-28T13:15:24.054Z,9.19
2022-09-28T13:17:59.237Z,9.13
2022-09-28T13:20:35.868Z,9.09
2022-09-28T13:23:15.167Z,9.06
2022-09-28T13:25:46.202Z,8.97
2022-09-28T13:28:16.491Z,8.97
2022-09-28T13:30:45.218Z,8.90
2022-09-28T13:33:18.844Z,8.73
2022-09-28T13:35:46.708Z,8.78
2022-09-28T13:38:47.125Z,8.82
2022-09-28T13:41:17.732Z,8.67
2022-09-28T13:44:11.675Z,8.62
2022-09-28T13:46:46.248Z,8.69
2022-09-28T13:49:28.130Z,8.59
2022-09-28T13:52:05.258Z,8.66
2022-09-28T13:54:50.586Z,8.58
2022-09-28T13:57:25.477Z,8.58
2022-09-28T14:00:19.803Z,8.57
2022-09-28T14:02:50.250Z,8.51
2022-09-28T14:05:45.778Z,8.56
2022-09-28T14:08:33.701Z,8.53
2022-09-28T14:11:43.233Z,8.50
2022-09-28T14:14:48.690Z,8.58
2022-09-28T14:17:54.531Z,8.59
2022-09-28T14:20:27.488Z,8.55
2022-09-28T14:23:30.887Z,8.67
2022-09-28T14:26:16.036Z,8.73
2022-09-28T14:28:54.658Z,8.66
2022-09-28T14:31:27.387Z,8.69
2022-09-28T14:33:58.256Z,8.62
2022-09-28T14:36:41.290Z,8.59
2022-09-28T14:39:38.604Z,8.57
2022-09-28T14:42:19.640Z,8.47
2022-09-28T14:45:35.983Z,8.46
2022-09-28T14:48:20.326Z,8.57
2022-09-28T14:51:52.622Z,8.45
2022-09-28T15:01:36.777Z,8.82
2022-09-28T15:04:10.876Z,8.85
2022-09-28T16:10:09.716Z,9.09
2022-09-28T16:25:15.078Z,8.94
2022-09-28T16:28:48.909Z,8.83
2022-09-28T16:56:17.544Z,8.60
2022-09-28T17:02:45.154Z,8.66
2022-09-28T17:05:10.102Z,8.70
2022-09-28T17:07:37.901Z,8.71
2022-09-28T17:10:13.996Z,8.71
2022-09-28T17:12:43.055Z,8.67
2022-09-28T17:15:10.688Z,8.69
2022-09-28T17:17:38.450Z,8.66
2022-09-28T17:20:16.967Z,8.62
2022-09-28T17:22:44.650Z,8.63
2022-09-28T17:25:13.324Z,8.59
2022-09-28T17:27:43.632Z,8.57
2022-09-28T17:30:13.233Z,8.54
2022-09-28T17:32:44.832Z,8.52
2022-09-28T17:35:24.082Z,8.45
2022-09-28T17:37:52.536Z,8.44
2022-09-28T17:40:21.866Z,8.42
2022-09-28T17:42:50.804Z,8.40
2022-09-28T17:45:18.456Z,8.32
2022-09-28T17:47:46.268Z,8.27
2022-09-28T17:50:21.185Z,8.27
2022-09-28T17:52:51.942Z,8.27
2022-09-28T17:55:21.165Z,8.27
2022-09-28T17:57:50.567Z,8.28
2022-09-28T18:00:18.645Z,8.28
2022-09-28T18:02:46.384Z,8.27
2022-09-28T18:05:15.090Z,8.25
2022-09-28T18:07:47.561Z,8.22
2022-09-28T18:10:16.800Z,8.23
2022-09-28T18:12:44.419Z,8.22
2022-09-28T18:15:14.441Z,8.19
2022-09-28T18:17:42.572Z,8.15
2022-09-28T18:20:11.774Z,8.14
2022-09-28T18:22:39.539Z,8.09
2022-09-28T18:25:08.345Z,8.08
2022-09-28T18:27:36.033Z,8.07
2022-09-28T18:30:05.227Z,8.09
2022-09-28T18:32:37.356Z,8.11
2022-09-28T18:35:05.498Z,8.12
2022-09-28T18:37:37.331Z,8.14
2022-09-28T18:40:06.024Z,8.13
2022-09-28T18:42:34.791Z,8.14
2022-09-28T18:45:02.553Z,8.16
2022-09-28T18:47:30.216Z,8.14
2022-09-28T18:49:59.216Z,8.18
2022-09-28T18:52:26.996Z,8.17
2022-09-28T18:54:54.738Z,8.10
2022-09-28T18:57:22.604Z,8.09
2022-09-28T18:59:50.250Z,8.03
2022-09-28T19:02:17.982Z,8.09
2022-09-28T19:04:45.921Z,8.13
2022-09-28T19:07:14.989Z,8.13
2022-09-28T19:09:44.101Z,8.16
2022-09-28T19:12:12.168Z,8.17
2022-09-28T19:14:39.825Z,8.18
2022-09-28T19:17:07.580Z,8.17
2022-09-28T19:19:35.751Z,8.16
2022-09-28T19:22:03.495Z,8.15
2022-09-28T19:24:32.645Z,8.14
2022-09-28T19:27:01.212Z,8.14
2022-09-28T19:29:28.990Z,8.15
2022-09-28T19:31:57.083Z,8.13
2022-09-28T19:34:26.983Z,8.11
2022-09-28T19:36:54.637Z,8.11
2022-09-28T19:39:22.536Z,8.12
2022-09-28T19:41:52.478Z,8.13
2022-09-28T19:44:25.721Z,8.07
2022-09-28T19:46:55.238Z,8.09
2022-09-28T19:49:23.737Z,8.10
2022-09-28T19:52:12.654Z,8.12
2022-09-28T19:54:42.704Z,8.10
2022-09-28T19:57:12.395Z,8.11
2022-09-28T19:59:40.190Z,8.08
2022-09-28T20:02:09.103Z,8.07
2022-09-28T20:04:36.798Z,8.07
2022-09-28T20:07:05.155Z,8.08
2022-09-28T20:09:32.812Z,8.04
2022-09-28T20:12:00.436Z,8.05
2022-09-28T20:14:33.033Z,8.02
2022-09-28T20:17:04.231Z,8.03
2022-09-28T20:19:31.807Z,8.04
2022-09-28T20:22:02.853Z,8.04
2022-09-28T20:24:31.199Z,8.04
2022-09-28T20:26:59.234Z,8.03
2022-09-28T20:29:26.903Z,8.04
2022-09-28T20:31:56.674Z,8.06
2022-09-28T20:34:24.387Z,8.03
2022-09-28T20:36:52.010Z,8.03
2022-09-28T20:39:19.738Z,8.05
2022-09-28T20:41:48.972Z,8.06
2022-09-28T20:44:16.856Z,8.06
2022-09-28T20:46:44.743Z,8.07
2022-09-28T20:49:13.973Z,8.06
2022-09-28T20:51:41.709Z,8.06
2022-09-28T20:54:09.479Z,8.07
2022-09-28T20:56:38.749Z,8.06
2022-09-28T20:59:08.185Z,8.07
2022-09-28T21:01:36.199Z,8.07
2022-09-28T21:04:06.107Z,8.07
2022-09-28T21:06:36.323Z,8.09
2022-09-28T21:09:04.937Z,8.08
2022-09-28T21:11:34.175Z,8.05
2022-09-28T21:14:03.377Z,8.04
2022-09-28T21:16:32.689Z,8.03
2022-09-28T21:19:00.572Z,8.05
2022-09-28T21:21:28.349Z,8.06
2022-09-28T21:23:58.291Z,8.08
2022-09-28T21:26:27.816Z,8.07
2022-09-28T21:28:55.864Z,8.06
2022-09-28T21:31:28.828Z,8.07
2022-09-28T21:33:57.391Z,8.08
2022-09-28T21:36:25.603Z,8.05
2022-09-28T21:38:53.470Z,8.06
2022-09-28T21:41:22.515Z,8.09
2022-09-28T21:43:50.145Z,8.09
2022-09-28T21:46:18.542Z,8.10
2022-09-28T21:48:46.218Z,8.09
2022-09-28T21:51:15.261Z,8.08
2022-09-28T21:53:42.911Z,8.08
2022-09-28T21:56:12.135Z,8.08
2022-09-28T21:58:41.226Z,8.12
2022-09-28T22:01:13.075Z,8.11
2022-09-28T22:03:40.818Z,8.13
2022-09-28T22:06:09.545Z,8.14
2022-09-28T22:08:38.421Z,8.11
2022-09-28T22:11:07.400Z,8.08
2022-09-28T22:13:36.543Z,8.09
2022-09-28T22:16:05.649Z,8.04
2022-09-28T22:18:34.042Z,8.04
2022-09-28T22:21:02.337Z,8.01
2022-09-28T22:23:30.549Z,8.05
2022-09-28T22:26:00.006Z,8.05
2022-09-28T22:28:27.955Z,7.99
2022-09-28T22:30:55.619Z,7.96
2022-09-28T22:33:25.136Z,7.93
2022-09-28T22:35:52.823Z,7.91
2022-09-28T22:38:21.268Z,7.90
2022-09-28T22:40:49.325Z,7.97
2022-09-28T22:43:17.096Z,7.98
2022-09-28T22:45:44.746Z,7.97
2022-09-28T22:48:12.890Z,8.00
2022-09-28T22:50:49.034Z,8.04
2022-09-28T22:53:16.686Z,8.00
2022-09-28T22:55:44.515Z,8.01
2022-09-28T22:58:12.247Z,8.03
2022-09-28T23:00:39.913Z,7.93
2022-09-28T23:03:07.660Z,7.93
2022-09-28T23:05:35.472Z,7.96
2022-09-28T23:08:04.556Z,7.91
2022-09-28T23:10:32.331Z,7.93
2022-09-28T23:13:01.000Z,7.92
2022-09-28T23:15:29.523Z,7.93
2022-09-28T23:17:57.135Z,7.90
2022-09-28T23:20:25.312Z,7.90
2022-09-28T23:22:52.947Z,7.91
2022-09-28T23:25:22.019Z,7.96
2022-09-28T23:27:50.919Z,7.98
2022-09-28T23:30:21.617Z,8.00
2022-09-28T23:32:49.657Z,7.99
2022-09-28T23:35:17.393Z,7.94
2022-09-28T23:37:45.031Z,7.98
2022-09-28T23:40:12.704Z,8.00
2022-09-28T23:42:41.712Z,8.01
2022-09-28T23:45:10.711Z,8.03
2022-09-28T23:47:38.767Z,8.04
2022-09-28T23:50:07.754Z,7.92
2022-09-28T23:52:35.440Z,7.88
2022-09-28T23:55:03.093Z,7.84
2022-09-28T23:57:30.742Z,7.81
2022-09-28T23:59:59.729Z,7.85
